Sunny Hill, Arkansas
Current Conditions -  °F | °C
As of 3:56 PM on Thursday 27 Nov 2014 (Local Time) from KSRC Reporting Station
Clear Clear  
Wind Chill: 46°   Ceiling: Unl
Heat Index: 48°   Visibility: 10mi
Dew Point: 26°   Wind: 5mph
Humidity: 42%   Direction: 260°W
Pressure: 30.48"   Gusts: NA
Location:  35.2662°N, 91.8491°W
Report Text: KSRC 272156Z AUTO 26004KT 10SM CLR 09/M03 A3048 RMK AO2 SLP330 T00891033 TSNO
Loading
Personal Weather Stations






























Interactive Weather Map New forecast layout! Learn more

10-Day Weather Forecast

Advertisements
Track Severe Weather on mobile